sensor_id;sensor_type;location;lat;lon;timestamp;P1;durP1;ratioP1;P2;durP2;ratioP2
14394;SDS011;7282;49.204;10.652;2022-12-24T00:01:39;4.90;;;2.10;;
14394;SDS011;7282;49.204;10.652;2022-12-24T00:04:05;5.27;;;2.30;;
14394;SDS011;7282;49.204;10.652;2022-12-24T00:06:32;4.40;;;2.30;;
14394;SDS011;7282;49.204;10.652;2022-12-24T00:08:59;5.93;;;2.57;;
14394;SDS011;7282;49.204;10.652;2022-12-24T00:11:25;10.70;;;2.80;;
14394;SDS011;7282;49.204;10.652;2022-12-24T00:13:52;7.87;;;2.70;;
14394;SDS011;7282;49.204;10.652;2022-12-24T00:16:19;6.23;;;2.77;;
14394;SDS011;7282;49.204;10.652;2022-12-24T00:18:46;7.40;;;3.10;;
14394;SDS011;7282;49.204;10.652;2022-12-24T00:21:13;7.63;;;2.53;;
14394;SDS011;7282;49.204;10.652;2022-12-24T00:23:40;8.70;;;3.60;;
14394;SDS011;7282;49.204;10.652;2022-12-24T00:26:06;11.37;;;3.00;;
14394;SDS011;7282;49.204;10.652;2022-12-24T00:28:33;7.23;;;2.67;;
14394;SDS011;7282;49.204;10.652;2022-12-24T00:31:05;7.27;;;3.03;;
14394;SDS011;7282;49.204;10.652;2022-12-24T00:33:28;10.50;;;3.40;;
14394;SDS011;7282;49.204;10.652;2022-12-24T00:35:55;6.13;;;3.00;;
14394;SDS011;7282;49.204;10.652;2022-12-24T00:38:22;8.03;;;2.90;;
14394;SDS011;7282;49.204;10.652;2022-12-24T00:40:48;8.13;;;2.60;;
14394;SDS011;7282;49.204;10.652;2022-12-24T00:43:15;6.10;;;2.00;;
14394;SDS011;7282;49.204;10.652;2022-12-24T00:45:42;7.07;;;2.23;;
14394;SDS011;7282;49.204;10.652;2022-12-24T00:48:08;6.53;;;2.50;;
14394;SDS011;7282;49.204;10.652;2022-12-24T00:50:35;5.53;;;2.70;;
14394;SDS011;7282;49.204;10.652;2022-12-24T00:53:02;7.40;;;3.10;;
14394;SDS011;7282;49.204;10.652;2022-12-24T00:55:28;3.80;;;2.43;;
14394;SDS011;7282;49.204;10.652;2022-12-24T00:57:55;3.97;;;2.53;;
14394;SDS011;7282;49.204;10.652;2022-12-24T01:00:22;5.90;;;2.20;;
14394;SDS011;7282;49.204;10.652;2022-12-24T01:02:49;3.73;;;2.20;;
14394;SDS011;7282;49.204;10.652;2022-12-24T01:05:15;5.63;;;2.13;;
14394;SDS011;7282;49.204;10.652;2022-12-24T01:07:44;5.37;;;2.17;;
14394;SDS011;7282;49.204;10.652;2022-12-24T01:10:16;7.07;;;2.33;;
14394;SDS011;7282;49.204;10.652;2022-12-24T01:12:39;3.67;;;2.00;;
14394;SDS011;7282;49.204;10.652;2022-12-24T01:15:06;6.40;;;2.20;;
14394;SDS011;7282;49.204;10.652;2022-12-24T01:17:33;3.50;;;1.83;;
14394;SDS011;7282;49.204;10.652;2022-12-24T01:20:00;3.27;;;1.97;;
14394;SDS011;7282;49.204;10.652;2022-12-24T01:22:27;4.50;;;2.30;;
14394;SDS011;7282;49.204;10.652;2022-12-24T01:24:54;5.67;;;2.70;;
14394;SDS011;7282;49.204;10.652;2022-12-24T01:27:20;5.07;;;2.20;;
14394;SDS011;7282;49.204;10.652;2022-12-24T01:29:47;5.70;;;2.27;;
14394;SDS011;7282;49.204;10.652;2022-12-24T01:32:14;7.30;;;2.57;;
14394;SDS011;7282;49.204;10.652;2022-12-24T01:34:40;3.47;;;2.37;;
14394;SDS011;7282;49.204;10.652;2022-12-24T01:37:07;9.13;;;2.97;;
14394;SDS011;7282;49.204;10.652;2022-12-24T01:39:34;6.10;;;2.60;;
14394;SDS011;7282;49.204;10.652;2022-12-24T01:42:00;6.60;;;2.80;;
14394;SDS011;7282;49.204;10.652;2022-12-24T01:44:47;6.33;;;2.87;;
14394;SDS011;7282;49.204;10.652;2022-12-24T01:47:21;5.50;;;2.80;;
14394;SDS011;7282;49.204;10.652;2022-12-24T01:49:54;5.60;;;2.70;;
14394;SDS011;7282;49.204;10.652;2022-12-24T01:52:18;5.97;;;2.73;;
14394;SDS011;7282;49.204;10.652;2022-12-24T01:54:56;7.00;;;3.07;;
14394;SDS011;7282;49.204;10.652;2022-12-24T01:57:21;7.63;;;2.87;;
14394;SDS011;7282;49.204;10.652;2022-12-24T01:59:50;7.10;;;2.97;;
14394;SDS011;7282;49.204;10.652;2022-12-24T02:02:17;9.47;;;2.90;;
14394;SDS011;7282;49.204;10.652;2022-12-24T02:04:58;6.63;;;2.80;;
14394;SDS011;7282;49.204;10.652;2022-12-24T02:07:25;5.00;;;2.73;;
14394;SDS011;7282;49.204;10.652;2022-12-24T02:09:55;8.60;;;2.90;;
14394;SDS011;7282;49.204;10.652;2022-12-24T02:12:23;6.87;;;2.77;;
14394;SDS011;7282;49.204;10.652;2022-12-24T02:14:50;6.37;;;2.93;;
14394;SDS011;7282;49.204;10.652;2022-12-24T02:20:07;3.87;;;3.03;;
14394;SDS011;7282;49.204;10.652;2022-12-24T02:22:51;6.80;;;3.10;;
14394;SDS011;7282;49.204;10.652;2022-12-24T02:32:56;6.20;;;2.90;;
14394;SDS011;7282;49.204;10.652;2022-12-24T02:37:52;7.47;;;3.07;;
14394;SDS011;7282;49.204;10.652;2022-12-24T02:40:21;8.83;;;3.37;;
14394;SDS011;7282;49.204;10.652;2022-12-24T02:42:49;8.57;;;3.17;;
14394;SDS011;7282;49.204;10.652;2022-12-24T02:45:17;8.73;;;2.93;;
14394;SDS011;7282;49.204;10.652;2022-12-24T02:47:45;6.07;;;3.00;;
14394;SDS011;7282;49.204;10.652;2022-12-24T02:50:13;9.40;;;3.53;;
14394;SDS011;7282;49.204;10.652;2022-12-24T02:52:41;9.37;;;3.33;;
14394;SDS011;7282;49.204;10.652;2022-12-24T02:55:55;9.07;;;3.23;;
14394;SDS011;7282;49.204;10.652;2022-12-24T02:57:53;9.23;;;2.87;;
14394;SDS011;7282;49.204;10.652;2022-12-24T03:00:18;8.80;;;3.27;;
14394;SDS011;7282;49.204;10.652;2022-12-24T03:03:00;6.63;;;3.13;;
14394;SDS011;7282;49.204;10.652;2022-12-24T03:05:27;7.23;;;3.20;;
14394;SDS011;7282;49.204;10.652;2022-12-24T03:07:57;7.37;;;3.30;;
14394;SDS011;7282;49.204;10.652;2022-12-24T03:10:33;7.53;;;3.33;;
14394;SDS011;7282;49.204;10.652;2022-12-24T03:13:10;10.37;;;3.77;;
14394;SDS011;7282;49.204;10.652;2022-12-24T03:15:35;8.03;;;3.37;;
14394;SDS011;7282;49.204;10.652;2022-12-24T03:18:02;10.73;;;3.50;;
14394;SDS011;7282;49.204;10.652;2022-12-24T03:20:37;8.30;;;3.33;;
14394;SDS011;7282;49.204;10.652;2022-12-24T03:23:00;9.53;;;3.50;;
14394;SDS011;7282;49.204;10.652;2022-12-24T03:25:26;9.50;;;3.73;;
14394;SDS011;7282;49.204;10.652;2022-12-24T03:27:54;12.67;;;3.70;;
14394;SDS011;7282;49.204;10.652;2022-12-24T03:30:22;8.37;;;3.70;;
14394;SDS011;7282;49.204;10.652;2022-12-24T03:32:49;7.13;;;3.57;;
14394;SDS011;7282;49.204;10.652;2022-12-24T03:35:16;7.67;;;2.77;;
14394;SDS011;7282;49.204;10.652;2022-12-24T03:37:42;8.23;;;3.90;;
14394;SDS011;7282;49.204;10.652;2022-12-24T03:40:09;5.70;;;2.97;;
14394;SDS011;7282;49.204;10.652;2022-12-24T03:42:36;7.80;;;3.23;;
14394;SDS011;7282;49.204;10.652;2022-12-24T03:45:03;8.93;;;3.60;;
14394;SDS011;7282;49.204;10.652;2022-12-24T03:47:30;7.27;;;2.90;;
14394;SDS011;7282;49.204;10.652;2022-12-24T03:49:57;5.50;;;3.23;;
14394;SDS011;7282;49.204;10.652;2022-12-24T03:52:23;10.27;;;3.73;;
14394;SDS011;7282;49.204;10.652;2022-12-24T03:54:50;5.40;;;3.20;;
14394;SDS011;7282;49.204;10.652;2022-12-24T03:57:17;9.90;;;3.40;;
14394;SDS011;7282;49.204;10.652;2022-12-24T03:59:43;10.73;;;3.27;;
14394;SDS011;7282;49.204;10.652;2022-12-24T04:02:10;7.70;;;3.13;;
14394;SDS011;7282;49.204;10.652;2022-12-24T04:04:37;8.30;;;3.13;;
14394;SDS011;7282;49.204;10.652;2022-12-24T04:07:04;8.37;;;3.43;;
14394;SDS011;7282;49.204;10.652;2022-12-24T04:09:30;11.47;;;4.43;;
14394;SDS011;7282;49.204;10.652;2022-12-24T04:11:57;6.67;;;3.00;;
14394;SDS011;7282;49.204;10.652;2022-12-24T04:14:24;12.03;;;3.77;;
14394;SDS011;7282;49.204;10.652;2022-12-24T04:16:51;9.17;;;4.00;;
14394;SDS011;7282;49.204;10.652;2022-12-24T04:19:17;8.13;;;3.90;;
14394;SDS011;7282;49.204;10.652;2022-12-24T04:21:44;6.30;;;3.83;;
14394;SDS011;7282;49.204;10.652;2022-12-24T04:24:11;7.17;;;3.33;;
14394;SDS011;7282;49.204;10.652;2022-12-24T04:26:37;11.50;;;3.40;;
14394;SDS011;7282;49.204;10.652;2022-12-24T04:29:04;12.83;;;3.70;;
14394;SDS011;7282;49.204;10.652;2022-12-24T04:31:31;9.50;;;3.43;;
14394;SDS011;7282;49.204;10.652;2022-12-24T04:33:57;7.00;;;3.20;;
14394;SDS011;7282;49.204;10.652;2022-12-24T04:36:25;14.03;;;4.83;;
14394;SDS011;7282;49.204;10.652;2022-12-24T04:38:52;9.80;;;3.80;;
14394;SDS011;7282;49.204;10.652;2022-12-24T04:41:20;10.97;;;3.93;;
14394;SDS011;7282;49.204;10.652;2022-12-24T04:43:47;10.03;;;3.63;;
14394;SDS011;7282;49.204;10.652;2022-12-24T04:46:14;12.93;;;4.40;;
14394;SDS011;7282;49.204;10.652;2022-12-24T04:48:44;13.23;;;4.37;;
14394;SDS011;7282;49.204;10.652;2022-12-24T04:51:10;9.97;;;4.00;;
14394;SDS011;7282;49.204;10.652;2022-12-24T04:53:37;10.73;;;3.57;;
14394;SDS011;7282;49.204;10.652;2022-12-24T04:56:11;8.23;;;3.33;;
14394;SDS011;7282;49.204;10.652;2022-12-24T04:58:38;14.93;;;4.13;;
14394;SDS011;7282;49.204;10.652;2022-12-24T05:01:05;10.60;;;4.33;;
14394;SDS011;7282;49.204;10.652;2022-12-24T05:03:32;9.57;;;4.00;;
14394;SDS011;7282;49.204;10.652;2022-12-24T05:06:02;14.10;;;4.47;;
14394;SDS011;7282;49.204;10.652;2022-12-24T05:08:29;12.83;;;4.20;;
14394;SDS011;7282;49.204;10.652;2022-12-24T05:10:57;12.27;;;4.43;;
14394;SDS011;7282;49.204;10.652;2022-12-24T05:13:24;9.30;;;3.60;;
14394;SDS011;7282;49.204;10.652;2022-12-24T05:15:51;14.57;;;5.33;;
14394;SDS011;7282;49.204;10.652;2022-12-24T05:18:18;9.13;;;3.87;;
14394;SDS011;7282;49.204;10.652;2022-12-24T05:20:45;11.70;;;3.70;;
14394;SDS011;7282;49.204;10.652;2022-12-24T05:23:16;11.53;;;4.07;;
14394;SDS011;7282;49.204;10.652;2022-12-24T05:26:01;8.57;;;2.90;;
14394;SDS011;7282;49.204;10.652;2022-12-24T05:28:53;6.20;;;3.13;;
14394;SDS011;7282;49.204;10.652;2022-12-24T05:31:21;9.13;;;3.87;;
14394;SDS011;7282;49.204;10.652;2022-12-24T05:33:48;12.50;;;3.43;;
14394;SDS011;7282;49.204;10.652;2022-12-24T05:36:15;10.03;;;3.03;;
14394;SDS011;7282;49.204;10.652;2022-12-24T05:38:42;9.07;;;3.43;;
14394;SDS011;7282;49.204;10.652;2022-12-24T05:41:08;15.50;;;3.77;;
14394;SDS011;7282;49.204;10.652;2022-12-24T05:43:36;16.40;;;4.30;;
14394;SDS011;7282;49.204;10.652;2022-12-24T05:46:06;10.10;;;3.53;;
14394;SDS011;7282;49.204;10.652;2022-12-24T05:48:33;9.57;;;3.43;;
14394;SDS011;7282;49.204;10.652;2022-12-24T05:51:02;10.70;;;3.27;;
14394;SDS011;7282;49.204;10.652;2022-12-24T05:53:28;11.70;;;4.00;;
14394;SDS011;7282;49.204;10.652;2022-12-24T05:56:01;11.73;;;3.17;;
14394;SDS011;7282;49.204;10.652;2022-12-24T05:58:24;11.90;;;3.90;;
14394;SDS011;7282;49.204;10.652;2022-12-24T06:00:51;8.77;;;3.60;;
14394;SDS011;7282;49.204;10.652;2022-12-24T06:03:19;14.97;;;4.27;;
14394;SDS011;7282;49.204;10.652;2022-12-24T06:05:46;12.53;;;3.80;;
14394;SDS011;7282;49.204;10.652;2022-12-24T06:08:12;14.83;;;5.47;;
14394;SDS011;7282;49.204;10.652;2022-12-24T06:10:39;16.07;;;4.80;;
14394;SDS011;7282;49.204;10.652;2022-12-24T06:13:06;8.80;;;3.77;;
14394;SDS011;7282;49.204;10.652;2022-12-24T06:15:34;14.37;;;5.73;;
14394;SDS011;7282;49.204;10.652;2022-12-24T06:18:01;19.10;;;6.17;;
14394;SDS011;7282;49.204;10.652;2022-12-24T06:20:28;17.53;;;7.23;;
14394;SDS011;7282;49.204;10.652;2022-12-24T06:22:55;20.60;;;6.40;;
14394;SDS011;7282;49.204;10.652;2022-12-24T06:25:21;14.83;;;5.33;;
14394;SDS011;7282;49.204;10.652;2022-12-24T06:27:50;18.60;;;7.57;;
14394;SDS011;7282;49.204;10.652;2022-12-24T06:30:17;18.67;;;7.40;;
14394;SDS011;7282;49.204;10.652;2022-12-24T06:32:44;20.33;;;7.03;;
14394;SDS011;7282;49.204;10.652;2022-12-24T06:35:10;14.23;;;6.50;;
14394;SDS011;7282;49.204;10.652;2022-12-24T06:37:37;13.93;;;5.17;;
14394;SDS011;7282;49.204;10.652;2022-12-24T06:40:04;13.57;;;6.17;;
14394;SDS011;7282;49.204;10.652;2022-12-24T06:42:31;13.87;;;6.33;;
14394;SDS011;7282;49.204;10.652;2022-12-24T06:44:57;17.33;;;6.87;;
14394;SDS011;7282;49.204;10.652;2022-12-24T06:47:24;18.07;;;6.97;;
14394;SDS011;7282;49.204;10.652;2022-12-24T06:49:51;19.20;;;7.00;;
14394;SDS011;7282;49.204;10.652;2022-12-24T06:52:17;20.50;;;6.23;;
14394;SDS011;7282;49.204;10.652;2022-12-24T06:54:44;13.23;;;4.90;;
14394;SDS011;7282;49.204;10.652;2022-12-24T06:57:11;14.30;;;4.90;;
14394;SDS011;7282;49.204;10.652;2022-12-24T06:59:38;8.93;;;4.17;;
14394;SDS011;7282;49.204;10.652;2022-12-24T07:02:04;15.93;;;4.77;;
14394;SDS011;7282;49.204;10.652;2022-12-24T07:04:31;15.47;;;4.80;;
14394;SDS011;7282;49.204;10.652;2022-12-24T07:06:58;16.50;;;4.97;;
14394;SDS011;7282;49.204;10.652;2022-12-24T07:09:24;13.67;;;4.80;;
14394;SDS011;7282;49.204;10.652;2022-12-24T07:11:51;12.57;;;5.13;;
14394;SDS011;7282;49.204;10.652;2022-12-24T07:14:18;13.63;;;4.97;;
14394;SDS011;7282;49.204;10.652;2022-12-24T07:16:44;13.67;;;5.27;;
14394;SDS011;7282;49.204;10.652;2022-12-24T07:19:11;11.83;;;5.07;;
14394;SDS011;7282;49.204;10.652;2022-12-24T07:21:38;15.43;;;5.60;;
14394;SDS011;7282;49.204;10.652;2022-12-24T07:24:05;13.90;;;5.13;;
14394;SDS011;7282;49.204;10.652;2022-12-24T07:26:32;12.20;;;5.63;;
14394;SDS011;7282;49.204;10.652;2022-12-24T07:28:59;12.67;;;5.07;;
14394;SDS011;7282;49.204;10.652;2022-12-24T07:31:26;13.73;;;4.83;;
14394;SDS011;7282;49.204;10.652;2022-12-24T07:33:52;12.97;;;5.17;;
14394;SDS011;7282;49.204;10.652;2022-12-24T07:36:20;13.80;;;5.13;;
14394;SDS011;7282;49.204;10.652;2022-12-24T07:38:47;13.17;;;4.93;;
14394;SDS011;7282;49.204;10.652;2022-12-24T07:41:14;17.53;;;5.50;;
14394;SDS011;7282;49.204;10.652;2022-12-24T07:43:41;13.37;;;4.93;;
14394;SDS011;7282;49.204;10.652;2022-12-24T07:46:08;20.50;;;5.53;;
14394;SDS011;7282;49.204;10.652;2022-12-24T07:48:34;13.10;;;4.80;;
14394;SDS011;7282;49.204;10.652;2022-12-24T07:51:01;17.27;;;5.50;;
14394;SDS011;7282;49.204;10.652;2022-12-24T07:53:28;19.07;;;5.23;;
14394;SDS011;7282;49.204;10.652;2022-12-24T07:55:55;13.17;;;5.10;;
14394;SDS011;7282;49.204;10.652;2022-12-24T07:58:23;18.53;;;5.67;;
14394;SDS011;7282;49.204;10.652;2022-12-24T08:00:59;16.03;;;5.33;;
14394;SDS011;7282;49.204;10.652;2022-12-24T08:03:19;19.63;;;5.33;;
14394;SDS011;7282;49.204;10.652;2022-12-24T08:05:46;16.63;;;5.10;;
14394;SDS011;7282;49.204;10.652;2022-12-24T08:08:13;15.33;;;4.90;;
14394;SDS011;7282;49.204;10.652;2022-12-24T08:10:40;15.87;;;5.10;;
14394;SDS011;7282;49.204;10.652;2022-12-24T08:13:07;16.50;;;4.77;;
14394;SDS011;7282;49.204;10.652;2022-12-24T08:15:34;13.53;;;5.03;;
14394;SDS011;7282;49.204;10.652;2022-12-24T08:18:00;17.97;;;5.30;;
14394;SDS011;7282;49.204;10.652;2022-12-24T08:20:27;17.43;;;5.43;;
14394;SDS011;7282;49.204;10.652;2022-12-24T08:22:54;16.40;;;5.77;;
14394;SDS011;7282;49.204;10.652;2022-12-24T08:25:20;15.10;;;5.10;;
14394;SDS011;7282;49.204;10.652;2022-12-24T08:27:47;17.53;;;4.87;;
14394;SDS011;7282;49.204;10.652;2022-12-24T08:30:14;12.40;;;5.03;;
14394;SDS011;7282;49.204;10.652;2022-12-24T08:32:41;18.30;;;4.83;;
14394;SDS011;7282;49.204;10.652;2022-12-24T08:35:07;14.13;;;5.13;;
14394;SDS011;7282;49.204;10.652;2022-12-24T08:37:34;19.53;;;5.47;;
14394;SDS011;7282;49.204;10.652;2022-12-24T08:40:01;14.13;;;5.23;;
14394;SDS011;7282;49.204;10.652;2022-12-24T08:42:28;16.53;;;4.97;;
14394;SDS011;7282;49.204;10.652;2022-12-24T08:44:54;13.33;;;4.70;;
14394;SDS011;7282;49.204;10.652;2022-12-24T08:47:21;16.93;;;5.23;;
14394;SDS011;7282;49.204;10.652;2022-12-24T08:49:48;14.73;;;4.87;;
14394;SDS011;7282;49.204;10.652;2022-12-24T08:52:14;14.97;;;4.77;;
14394;SDS011;7282;49.204;10.652;2022-12-24T08:54:41;15.03;;;4.83;;
14394;SDS011;7282;49.204;10.652;2022-12-24T08:57:08;16.47;;;4.40;;
14394;SDS011;7282;49.204;10.652;2022-12-24T08:59:35;19.43;;;5.17;;
14394;SDS011;7282;49.204;10.652;2022-12-24T09:02:01;14.37;;;5.40;;
14394;SDS011;7282;49.204;10.652;2022-12-24T09:04:28;12.67;;;4.97;;
14394;SDS011;7282;49.204;10.652;2022-12-24T09:06:55;10.47;;;4.67;;
14394;SDS011;7282;49.204;10.652;2022-12-24T09:09:21;9.80;;;4.50;;
14394;SDS011;7282;49.204;10.652;2022-12-24T09:11:48;14.10;;;5.40;;
14394;SDS011;7282;49.204;10.652;2022-12-24T09:14:15;11.90;;;4.47;;
14394;SDS011;7282;49.204;10.652;2022-12-24T09:16:41;12.97;;;4.93;;
14394;SDS011;7282;49.204;10.652;2022-12-24T09:19:08;11.73;;;4.50;;
14394;SDS011;7282;49.204;10.652;2022-12-24T09:21:35;14.20;;;4.47;;
14394;SDS011;7282;49.204;10.652;2022-12-24T09:24:02;15.77;;;4.80;;
14394;SDS011;7282;49.204;10.652;2022-12-24T09:26:29;11.13;;;4.60;;
14394;SDS011;7282;49.204;10.652;2022-12-24T09:28:57;14.97;;;5.27;;
14394;SDS011;7282;49.204;10.652;2022-12-24T09:31:25;13.23;;;4.57;;
14394;SDS011;7282;49.204;10.652;2022-12-24T09:33:52;11.47;;;4.90;;
14394;SDS011;7282;49.204;10.652;2022-12-24T09:36:19;15.37;;;5.67;;
14394;SDS011;7282;49.204;10.652;2022-12-24T09:38:46;13.63;;;4.73;;
14394;SDS011;7282;49.204;10.652;2022-12-24T09:44:01;12.93;;;4.73;;
14394;SDS011;7282;49.204;10.652;2022-12-24T09:46:32;14.73;;;5.30;;
14394;SDS011;7282;49.204;10.652;2022-12-24T09:49:08;15.70;;;5.00;;
14394;SDS011;7282;49.204;10.652;2022-12-24T09:51:37;18.83;;;5.30;;
14394;SDS011;7282;49.204;10.652;2022-12-24T09:54:00;14.77;;;5.30;;
14394;SDS011;7282;49.204;10.652;2022-12-24T09:56:40;16.43;;;5.33;;
14394;SDS011;7282;49.204;10.652;2022-12-24T09:59:03;16.20;;;4.97;;
14394;SDS011;7282;49.204;10.652;2022-12-24T10:01:31;13.53;;;5.70;;
14394;SDS011;7282;49.204;10.652;2022-12-24T10:04:04;10.87;;;5.03;;
14394;SDS011;7282;49.204;10.652;2022-12-24T10:06:32;13.17;;;4.93;;
14394;SDS011;7282;49.204;10.652;2022-12-24T10:09:03;12.23;;;4.03;;
14394;SDS011;7282;49.204;10.652;2022-12-24T10:11:35;11.23;;;4.33;;
14394;SDS011;7282;49.204;10.652;2022-12-24T10:14:10;12.87;;;4.13;;
14394;SDS011;7282;49.204;10.652;2022-12-24T10:17:37;15.30;;;4.13;;
14394;SDS011;7282;49.204;10.652;2022-12-24T10:19:15;14.40;;;4.10;;
14394;SDS011;7282;49.204;10.652;2022-12-24T10:21:44;14.07;;;4.10;;
14394;SDS011;7282;49.204;10.652;2022-12-24T10:24:17;10.33;;;4.00;;
14394;SDS011;7282;49.204;10.652;2022-12-24T10:26:45;11.43;;;4.50;;
14394;SDS011;7282;49.204;10.652;2022-12-24T10:29:28;11.50;;;3.93;;
14394;SDS011;7282;49.204;10.652;2022-12-24T10:34:25;14.47;;;4.10;;
14394;SDS011;7282;49.204;10.652;2022-12-24T10:36:52;13.30;;;3.70;;
14394;SDS011;7282;49.204;10.652;2022-12-24T10:39:20;12.73;;;3.57;;
14394;SDS011;7282;49.204;10.652;2022-12-24T10:41:49;14.17;;;4.30;;
14394;SDS011;7282;49.204;10.652;2022-12-24T10:44:17;14.10;;;4.70;;
14394;SDS011;7282;49.204;10.652;2022-12-24T10:46:44;15.10;;;4.97;;
14394;SDS011;7282;49.204;10.652;2022-12-24T10:49:12;12.07;;;4.40;;
14394;SDS011;7282;49.204;10.652;2022-12-24T10:54:15;9.17;;;3.90;;
14394;SDS011;7282;49.204;10.652;2022-12-24T10:56:43;15.17;;;4.23;;
14394;SDS011;7282;49.204;10.652;2022-12-24T10:59:26;11.77;;;4.13;;
14394;SDS011;7282;49.204;10.652;2022-12-24T11:01:57;11.73;;;3.87;;
14394;SDS011;7282;49.204;10.652;2022-12-24T11:04:25;10.87;;;3.40;;
14394;SDS011;7282;49.204;10.652;2022-12-24T11:06:52;14.10;;;4.10;;
14394;SDS011;7282;49.204;10.652;2022-12-24T11:09:24;8.70;;;3.70;;
14394;SDS011;7282;49.204;10.652;2022-12-24T11:11:51;10.63;;;4.00;;
14394;SDS011;7282;49.204;10.652;2022-12-24T11:14:18;12.30;;;4.53;;
14394;SDS011;7282;49.204;10.652;2022-12-24T11:16:51;14.57;;;4.50;;
14394;SDS011;7282;49.204;10.652;2022-12-24T11:19:15;14.40;;;4.23;;
14394;SDS011;7282;49.204;10.652;2022-12-24T11:21:42;15.10;;;4.07;;
14394;SDS011;7282;49.204;10.652;2022-12-24T11:26:41;9.57;;;3.50;;
14394;SDS011;7282;49.204;10.652;2022-12-24T11:29:24;12.97;;;3.90;;
14394;SDS011;7282;49.204;10.652;2022-12-24T11:31:52;12.07;;;3.80;;
14394;SDS011;7282;49.204;10.652;2022-12-24T11:34:24;9.53;;;3.70;;
14394;SDS011;7282;49.204;10.652;2022-12-24T11:36:52;11.37;;;4.27;;
14394;SDS011;7282;49.204;10.652;2022-12-24T11:39:20;11.33;;;3.67;;
14394;SDS011;7282;49.204;10.652;2022-12-24T11:41:50;12.77;;;4.13;;
14394;SDS011;7282;49.204;10.652;2022-12-24T11:44:23;10.97;;;3.67;;
14394;SDS011;7282;49.204;10.652;2022-12-24T11:46:46;12.63;;;4.00;;
14394;SDS011;7282;49.204;10.652;2022-12-24T11:49:22;11.30;;;4.07;;
14394;SDS011;7282;49.204;10.652;2022-12-24T11:54:35;10.43;;;3.70;;
14394;SDS011;7282;49.204;10.652;2022-12-24T11:57:02;11.63;;;3.87;;
14394;SDS011;7282;49.204;10.652;2022-12-24T11:59:33;11.93;;;3.60;;
14394;SDS011;7282;49.204;10.652;2022-12-24T12:02:43;9.20;;;3.63;;
14394;SDS011;7282;49.204;10.652;2022-12-24T12:04:32;10.23;;;3.67;;
14394;SDS011;7282;49.204;10.652;2022-12-24T12:07:01;14.10;;;4.20;;
14394;SDS011;7282;49.204;10.652;2022-12-24T12:09:32;10.53;;;3.80;;
14394;SDS011;7282;49.204;10.652;2022-12-24T12:14:45;10.37;;;3.83;;
14394;SDS011;7282;49.204;10.652;2022-12-24T12:19:41;9.03;;;3.67;;
14394;SDS011;7282;49.204;10.652;2022-12-24T12:22:13;10.17;;;4.03;;
14394;SDS011;7282;49.204;10.652;2022-12-24T12:24:38;9.27;;;3.53;;
14394;SDS011;7282;49.204;10.652;2022-12-24T12:27:18;9.20;;;3.60;;
14394;SDS011;7282;49.204;10.652;2022-12-24T12:29:44;9.73;;;3.30;;
14394;SDS011;7282;49.204;10.652;2022-12-24T12:32:15;14.50;;;3.93;;
14394;SDS011;7282;49.204;10.652;2022-12-24T12:34:42;9.03;;;4.00;;
14394;SDS011;7282;49.204;10.652;2022-12-24T12:37:13;11.60;;;3.60;;
14394;SDS011;7282;49.204;10.652;2022-12-24T12:39:41;14.03;;;3.97;;
14394;SDS011;7282;49.204;10.652;2022-12-24T12:42:23;11.90;;;3.80;;
14394;SDS011;7282;49.204;10.652;2022-12-24T12:44:53;11.00;;;4.27;;
14394;SDS011;7282;49.204;10.652;2022-12-24T12:49:58;10.47;;;3.80;;
14394;SDS011;7282;49.204;10.652;2022-12-24T12:57:34;14.13;;;4.20;;
14394;SDS011;7282;49.204;10.652;2022-12-24T13:00:10;12.23;;;3.43;;
14394;SDS011;7282;49.204;10.652;2022-12-24T13:02:39;11.00;;;3.50;;
14394;SDS011;7282;49.204;10.652;2022-12-24T13:10:20;11.43;;;3.70;;
14394;SDS011;7282;49.204;10.652;2022-12-24T13:12:59;10.20;;;3.47;;
14394;SDS011;7282;49.204;10.652;2022-12-24T13:15:33;9.30;;;3.60;;
14394;SDS011;7282;49.204;10.652;2022-12-24T13:20:39;9.30;;;3.90;;
14394;SDS011;7282;49.204;10.652;2022-12-24T13:23:16;10.83;;;3.50;;
14394;SDS011;7282;49.204;10.652;2022-12-24T13:25:43;9.97;;;3.83;;
14394;SDS011;7282;49.204;10.652;2022-12-24T13:28:28;11.00;;;4.03;;
14394;SDS011;7282;49.204;10.652;2022-12-24T13:30:42;6.23;;;3.17;;
14394;SDS011;7282;49.204;10.652;2022-12-24T13:33:10;12.70;;;3.40;;
14394;SDS011;7282;49.204;10.652;2022-12-24T13:35:38;10.07;;;3.57;;
14394;SDS011;7282;49.204;10.652;2022-12-24T13:40:51;8.90;;;3.20;;
14394;SDS011;7282;49.204;10.652;2022-12-24T13:43:17;10.57;;;3.53;;
14394;SDS011;7282;49.204;10.652;2022-12-24T13:45:45;6.70;;;3.20;;
14394;SDS011;7282;49.204;10.652;2022-12-24T13:48:16;10.97;;;3.80;;
14394;SDS011;7282;49.204;10.652;2022-12-24T13:50:45;7.87;;;2.77;;
14394;SDS011;7282;49.204;10.652;2022-12-24T13:53:20;10.37;;;3.87;;
14394;SDS011;7282;49.204;10.652;2022-12-24T13:55:49;9.13;;;3.10;;
14394;SDS011;7282;49.204;10.652;2022-12-24T13:58:17;10.23;;;3.07;;
14394;SDS011;7282;49.204;10.652;2022-12-24T14:00:59;10.77;;;3.47;;
14394;SDS011;7282;49.204;10.652;2022-12-24T14:03:24;8.87;;;3.77;;
14394;SDS011;7282;49.204;10.652;2022-12-24T14:05:56;7.60;;;3.10;;
14394;SDS011;7282;49.204;10.652;2022-12-24T14:14:19;10.83;;;4.03;;
14394;SDS011;7282;49.204;10.652;2022-12-24T14:18:23;10.00;;;3.67;;
14394;SDS011;7282;49.204;10.652;2022-12-24T14:20:50;10.50;;;4.03;;
14394;SDS011;7282;49.204;10.652;2022-12-24T14:23:41;11.40;;;4.43;;
14394;SDS011;7282;49.204;10.652;2022-12-24T14:25:49;12.43;;;4.27;;
14394;SDS011;7282;49.204;10.652;2022-12-24T14:28:16;6.37;;;3.13;;
14394;SDS011;7282;49.204;10.652;2022-12-24T14:30:46;11.23;;;3.90;;
14394;SDS011;7282;49.204;10.652;2022-12-24T14:33:33;12.10;;;4.50;;
14394;SDS011;7282;49.204;10.652;2022-12-24T14:35:46;11.50;;;4.00;;
14394;SDS011;7282;49.204;10.652;2022-12-24T14:38:14;10.60;;;3.93;;
14394;SDS011;7282;49.204;10.652;2022-12-24T14:44:06;11.93;;;4.20;;
14394;SDS011;7282;49.204;10.652;2022-12-24T14:45:58;10.90;;;4.77;;
14394;SDS011;7282;49.204;10.652;2022-12-24T14:56:15;14.63;;;4.70;;
14394;SDS011;7282;49.204;10.652;2022-12-24T14:58:42;12.30;;;4.53;;
14394;SDS011;7282;49.204;10.652;2022-12-24T15:01:24;18.20;;;5.13;;
14394;SDS011;7282;49.204;10.652;2022-12-24T15:04:00;14.07;;;4.83;;
14394;SDS011;7282;49.204;10.652;2022-12-24T15:06:27;8.03;;;4.20;;
14394;SDS011;7282;49.204;10.652;2022-12-24T15:08:54;7.00;;;3.53;;
14394;SDS011;7282;49.204;10.652;2022-12-24T15:11:21;14.47;;;4.40;;
14394;SDS011;7282;49.204;10.652;2022-12-24T15:13:49;12.80;;;4.40;;
14394;SDS011;7282;49.204;10.652;2022-12-24T15:16:21;11.97;;;4.43;;
14394;SDS011;7282;49.204;10.652;2022-12-24T15:18:47;13.87;;;5.10;;
14394;SDS011;7282;49.204;10.652;2022-12-24T15:21:22;17.40;;;4.30;;
14394;SDS011;7282;49.204;10.652;2022-12-24T15:23:45;10.07;;;4.43;;
14394;SDS011;7282;49.204;10.652;2022-12-24T15:26:14;10.10;;;4.17;;
14394;SDS011;7282;49.204;10.652;2022-12-24T15:28:41;12.40;;;4.50;;
14394;SDS011;7282;49.204;10.652;2022-12-24T15:31:12;8.30;;;3.70;;
14394;SDS011;7282;49.204;10.652;2022-12-24T15:33:39;8.37;;;4.80;;
14394;SDS011;7282;49.204;10.652;2022-12-24T15:36:06;11.60;;;4.70;;
14394;SDS011;7282;49.204;10.652;2022-12-24T15:38:34;18.17;;;4.70;;
14394;SDS011;7282;49.204;10.652;2022-12-24T15:41:04;12.43;;;4.80;;
14394;SDS011;7282;49.204;10.652;2022-12-24T15:43:31;9.33;;;4.60;;
14394;SDS011;7282;49.204;10.652;2022-12-24T15:45:57;13.60;;;6.20;;
14394;SDS011;7282;49.204;10.652;2022-12-24T15:48:26;10.73;;;5.33;;
14394;SDS011;7282;49.204;10.652;2022-12-24T15:50:53;13.53;;;5.37;;
14394;SDS011;7282;49.204;10.652;2022-12-24T15:53:21;8.53;;;4.93;;
14394;SDS011;7282;49.204;10.652;2022-12-24T15:56:02;12.40;;;5.83;;